Gorgan, Iran
Current Conditions -  °F | °C
As of 3:00 PM on Friday 31 Oct 2014 (Local Time) from OING Reporting Station
Clear Clear  
Wind Chill: 22°   Ceiling: Unl
Heat Index: 22°   Visibility: 6mi
Dew Point:   Wind: 0mph
Humidity: 31%   Direction: NA
Pressure: 30"   Gusts: NA
Location:  36.83°N, 54.48°E
Report Text: OING 311200Z 00000KT CAVOK 22/04 Q1016
Loading
Personal Weather Stations






























Interactive Weather Map
Tropical Storm Tracking
New forecast layout! Learn more

10-Day Weather Forecast

Advertisements
Track Severe Weather on mobile